createdAt,value
2023-05-30T00:02:05.828Z,100422.75
2023-05-30T00:04:32.340Z,100429.88
2023-05-30T00:06:58.969Z,100433.25
2023-05-30T00:09:25.433Z,100428.91
2023-05-30T00:11:55.659Z,100432.16
2023-05-30T00:14:22.335Z,100436.22
2023-05-30T00:16:49.049Z,100437.19
2023-05-30T00:19:16.076Z,100440.25
2023-05-30T00:21:42.588Z,100444.09
2023-05-30T00:24:09.111Z,100448.78
2023-05-30T00:26:35.589Z,100459.94
2023-05-30T00:29:02.218Z,100443.28
2023-05-30T00:31:30.646Z,100447.13
2023-05-30T00:33:57.459Z,100450.38
2023-05-30T00:36:24.210Z,100455.38
2023-05-30T00:38:50.806Z,100454.38
2023-05-30T00:41:18.101Z,100457.50
2023-05-30T00:43:45.043Z,100450.19
2023-05-30T00:46:13.057Z,100448.94
2023-05-30T00:48:39.739Z,100458.47
2023-05-30T00:51:08.219Z,100458.84
2023-05-30T00:53:34.886Z,100458.28
2023-05-30T00:56:02.105Z,100459.56
2023-05-30T00:58:28.914Z,100457.13
2023-05-30T01:00:55.508Z,100462.81
2023-05-30T01:03:25.865Z,100461.34
2023-05-30T01:05:52.893Z,100459.03
2023-05-30T01:08:19.753Z,100463.72
2023-05-30T01:10:48.675Z,100468.47
2023-05-30T01:13:36.627Z,100457.06
2023-05-30T01:16:09.284Z,100462.31
2023-05-30T01:18:41.186Z,100474.53
2023-05-30T01:21:12.056Z,100470.94
2023-05-30T01:24:24.373Z,100468.38
2023-05-30T01:27:19.193Z,100460.59
2023-05-30T01:29:45.909Z,100468.63
2023-05-30T01:32:12.606Z,100473.66
2023-05-30T01:34:39.311Z,100477.41
2023-05-30T01:37:06.584Z,100475.72
2023-05-30T01:39:33.346Z,100477.94
2023-05-30T01:42:03.482Z,100481.88
2023-05-30T01:44:51.591Z,100466.06
2023-05-30T01:47:41.902Z,100472.56
2023-05-30T01:50:17.719Z,100480.47
2023-05-30T01:52:59.207Z,100478.41
2023-05-30T01:55:26.712Z,100485.94
2023-05-30T01:57:54.489Z,100487.09
2023-05-30T02:00:22.049Z,100491.06
2023-05-30T02:02:48.914Z,100494.03
2023-05-30T02:05:15.615Z,100489.97
2023-05-30T02:07:42.271Z,100499.84
2023-05-30T02:10:09.414Z,100491.69
2023-05-30T02:12:36.459Z,100494.66
2023-05-30T02:15:04.881Z,100490.53
2023-05-30T02:17:31.521Z,100487.00
2023-05-30T02:20:00.182Z,100495.47
2023-05-30T02:22:27.016Z,100496.34
2023-05-30T02:24:56.565Z,100490.19
2023-05-30T02:27:23.263Z,100496.69
2023-05-30T02:29:49.979Z,100498.75
2023-05-30T02:32:17.975Z,100499.94
2023-05-30T02:34:44.600Z,100499.53
2023-05-30T02:37:11.871Z,100495.63
2023-05-30T02:39:38.515Z,100495.97
2023-05-30T02:42:07.017Z,100493.72
2023-05-30T02:44:33.514Z,100492.56
2023-05-30T02:47:00.086Z,100496.59
2023-05-30T02:49:28.496Z,100492.66
2023-05-30T02:51:55.061Z,100506.81
2023-05-30T02:54:21.631Z,100493.16
2023-05-30T02:56:48.201Z,100499.88
2023-05-30T02:59:14.778Z,100498.28
2023-05-30T03:01:41.428Z,100498.75
2023-05-30T03:04:08.110Z,100503.88
2023-05-30T03:06:37.128Z,100504.09
2023-05-30T03:09:04.823Z,100522.59
2023-05-30T03:11:31.454Z,100513.78
2023-05-30T03:13:58.103Z,100520.00
2023-05-30T03:16:24.805Z,100511.19
2023-05-30T03:18:51.801Z,100519.19
2023-05-30T03:21:18.543Z,100520.81
2023-05-30T03:23:45.528Z,100517.69
2023-05-30T03:26:12.034Z,100520.78
2023-05-30T03:28:38.706Z,100523.56
2023-05-30T03:31:05.200Z,100523.81
2023-05-30T03:33:32.091Z,100521.34
2023-05-30T03:35:58.573Z,100522.56
2023-05-30T03:38:25.164Z,100520.75
2023-05-30T03:40:51.848Z,100533.16
2023-05-30T03:43:18.350Z,100523.97
2023-05-30T03:45:45.054Z,100529.00
2023-05-30T03:48:11.805Z,100533.44
2023-05-30T03:50:38.412Z,100535.09
2023-05-30T03:53:04.898Z,100541.84
2023-05-30T03:55:32.084Z,100540.03
2023-05-30T03:57:58.618Z,100548.06
2023-05-30T04:00:25.090Z,100546.59
2023-05-30T04:02:52.327Z,100549.00
2023-05-30T04:05:19.681Z,100547.59
2023-05-30T04:07:46.361Z,100552.00
2023-05-30T04:10:12.891Z,100556.53
2023-05-30T04:12:39.489Z,100555.53
2023-05-30T04:15:06.710Z,100560.63
2023-05-30T04:17:34.058Z,100572.56
2023-05-30T04:20:00.563Z,100563.63
2023-05-30T04:22:27.166Z,100560.47
2023-05-30T04:24:53.875Z,100568.03
2023-05-30T04:27:20.623Z,100563.16
2023-05-30T04:29:49.905Z,100567.78
2023-05-30T04:32:17.533Z,100567.19
2023-05-30T04:34:45.093Z,100565.78
2023-05-30T04:37:13.103Z,100563.78
2023-05-30T04:39:39.822Z,100575.38
2023-05-30T04:42:06.941Z,100569.53
2023-05-30T04:44:39.127Z,100576.78
2023-05-30T04:47:09.455Z,100576.88
2023-05-30T04:49:42.783Z,100582.34
2023-05-30T04:52:09.317Z,100573.53
2023-05-30T04:54:35.998Z,100575.56
2023-05-30T04:57:03.612Z,100572.06
2023-05-30T04:59:30.300Z,100574.97
2023-05-30T05:01:58.314Z,100583.56
2023-05-30T05:04:24.937Z,100576.44
2023-05-30T05:06:51.935Z,100584.94
2023-05-30T05:09:18.458Z,100580.66
2023-05-30T05:11:45.110Z,100580.75
2023-05-30T05:14:11.676Z,100580.66
2023-05-30T05:16:38.297Z,100586.00
2023-05-30T05:19:04.818Z,100589.09
2023-05-30T05:21:31.268Z,100589.59
2023-05-30T05:23:58.045Z,100588.97
2023-05-30T05:26:26.027Z,100592.81
2023-05-30T05:28:52.478Z,100595.06
2023-05-30T05:31:19.037Z,100598.25
2023-05-30T05:33:45.646Z,100589.66
2023-05-30T05:36:12.145Z,100589.06
2023-05-30T05:38:39.242Z,100590.31
2023-05-30T05:41:05.940Z,100588.28
2023-05-30T05:43:32.629Z,100594.78
2023-05-30T05:45:59.193Z,100595.50
2023-05-30T05:48:26.508Z,100603.50
2023-05-30T05:50:53.252Z,100600.88
2023-05-30T05:53:20.065Z,100608.72
2023-05-30T05:55:46.916Z,100603.91
2023-05-30T05:58:14.036Z,100598.13
2023-05-30T06:00:41.062Z,100594.91
2023-05-30T06:03:09.209Z,100592.94
2023-05-30T06:05:36.263Z,100606.13
2023-05-30T06:08:03.073Z,100608.53
2023-05-30T06:10:29.746Z,100602.56
2023-05-30T06:12:56.589Z,100602.78
2023-05-30T06:15:23.138Z,100608.53
2023-05-30T06:17:49.742Z,100616.72
2023-05-30T06:20:16.438Z,100611.50
2023-05-30T06:22:43.224Z,100611.88
2023-05-30T06:25:09.843Z,100603.94
2023-05-30T06:27:36.920Z,100609.50
2023-05-30T06:30:03.725Z,100612.63
2023-05-30T06:32:33.248Z,100611.97
2023-05-30T06:34:59.857Z,100618.25
2023-05-30T06:37:26.541Z,100616.00
2023-05-30T06:39:53.173Z,100621.56
2023-05-30T06:42:21.425Z,100628.31
2023-05-30T06:44:47.896Z,100630.22
2023-05-30T06:47:14.423Z,100624.97
2023-05-30T06:49:41.044Z,100626.31
2023-05-30T06:52:07.541Z,100629.94
2023-05-30T06:54:34.460Z,100634.25
2023-05-30T06:57:04.067Z,100626.91
2023-05-30T06:59:31.832Z,100635.00
2023-05-30T07:01:58.324Z,100630.22
2023-05-30T07:04:25.573Z,100630.38
2023-05-30T07:06:52.324Z,100637.84
2023-05-30T07:09:18.893Z,100633.38
2023-05-30T07:11:45.817Z,100645.34
2023-05-30T07:14:12.400Z,100641.03
2023-05-30T07:16:39.393Z,100645.56
2023-05-30T07:21:38.118Z,100642.22
2023-05-30T07:24:04.703Z,100655.59
2023-05-30T07:26:31.209Z,100646.03
2023-05-30T07:28:58.352Z,100646.78
2023-05-30T07:31:24.843Z,100653.03
2023-05-30T07:33:51.460Z,100654.50
2023-05-30T07:36:19.234Z,100646.22
2023-05-30T07:38:45.666Z,100655.59
2023-05-30T07:41:12.237Z,100648.72
2023-05-30T07:43:38.811Z,100657.13
2023-05-30T07:46:05.542Z,100649.28
2023-05-30T07:48:32.436Z,100652.16
2023-05-30T07:50:59.214Z,100652.09
2023-05-30T07:53:26.128Z,100659.56
2023-05-30T07:55:52.702Z,100657.06
2023-05-30T07:58:19.146Z,100654.47
2023-05-30T08:00:45.649Z,100655.38
2023-05-30T08:03:12.307Z,100654.41
2023-05-30T08:05:39.164Z,100651.88
2023-05-30T08:08:08.162Z,100652.59
2023-05-30T08:10:34.786Z,100650.38
2023-05-30T08:13:01.657Z,100646.69
2023-05-30T08:15:28.270Z,100655.03
2023-05-30T08:17:57.820Z,100656.91
2023-05-30T08:20:25.370Z,100647.50
2023-05-30T08:22:53.084Z,100650.88
2023-05-30T08:25:24.961Z,100659.03
2023-05-30T08:27:54.003Z,100649.75
2023-05-30T08:30:21.101Z,100641.31
2023-05-30T08:32:47.688Z,100653.66
2023-05-30T08:35:15.179Z,100656.84
2023-05-30T08:37:42.263Z,100664.06
2023-05-30T08:40:15.907Z,100658.34
2023-05-30T08:42:42.843Z,100656.41
2023-05-30T08:45:09.887Z,100649.75
2023-05-30T08:47:36.914Z,100658.38
2023-05-30T08:50:05.243Z,100658.84
2023-05-30T08:52:32.626Z,100652.59
2023-05-30T08:55:31.680Z,100654.38
2023-05-30T08:58:20.237Z,100649.44
2023-05-30T09:00:49.527Z,100640.94
2023-05-30T09:03:17.122Z,100640.00
2023-05-30T09:05:43.894Z,100639.22
2023-05-30T09:08:11.169Z,100641.69
2023-05-30T09:10:38.216Z,100644.34
2023-05-30T09:13:04.715Z,100629.66
2023-05-30T09:15:31.318Z,100640.03
2023-05-30T09:17:57.974Z,100634.19
2023-05-30T09:20:26.406Z,100644.97
2023-05-30T09:22:52.889Z,100642.25
2023-05-30T09:25:19.713Z,100649.88
2023-05-30T09:27:53.308Z,100642.72
2023-05-30T09:30:20.432Z,100648.56
2023-05-30T09:33:03.445Z,100647.78
2023-05-30T09:35:30.747Z,100642.44
2023-05-30T09:37:57.577Z,100638.91
2023-05-30T09:40:24.857Z,100642.63
2023-05-30T09:42:53.676Z,100644.03
2023-05-30T09:45:25.430Z,100641.41
2023-05-30T09:47:53.689Z,100635.28
2023-05-30T09:50:22.311Z,100635.75
2023-05-30T09:52:53.678Z,100641.47
2023-05-30T09:55:20.632Z,100631.69
2023-05-30T09:57:49.100Z,100635.06
2023-05-30T10:00:18.503Z,100638.94
2023-05-30T10:02:54.834Z,100641.28
2023-05-30T10:05:29.285Z,100646.97
2023-05-30T10:07:57.442Z,100640.47
2023-05-30T10:10:24.779Z,100638.22
2023-05-30T10:12:53.741Z,100634.59
2023-05-30T10:15:24.521Z,100647.38
2023-05-30T10:18:06.899Z,100635.56
2023-05-30T10:20:42.362Z,100632.75
2023-05-30T10:23:09.387Z,100623.88
2023-05-30T10:25:40.458Z,100640.13
2023-05-30T10:28:07.872Z,100632.44
2023-05-30T10:30:34.963Z,100641.16
2023-05-30T10:33:12.430Z,100640.56
2023-05-30T10:35:39.859Z,100635.69
2023-05-30T10:38:12.458Z,100638.84
2023-05-30T10:41:01.522Z,100630.38
2023-05-30T10:43:46.922Z,100632.94
2023-05-30T10:46:25.282Z,100632.09
2023-05-30T10:48:54.784Z,100615.09
2023-05-30T10:51:21.771Z,100619.53
2023-05-30T10:53:49.202Z,100613.56
2023-05-30T10:56:41.777Z,100617.78
2023-05-30T10:59:12.896Z,100621.25
2023-05-30T11:01:39.959Z,100619.50
2023-05-30T11:04:08.617Z,100613.94
2023-05-30T11:06:36.974Z,100608.91
2023-05-30T11:09:15.424Z,100602.81
2023-05-30T11:11:45.971Z,100607.22
2023-05-30T11:14:13.775Z,100606.09
2023-05-30T11:16:58.631Z,100604.28
2023-05-30T11:19:26.568Z,100611.25
2023-05-30T11:22:03.927Z,100614.06
2023-05-30T11:24:31.986Z,100608.19
2023-05-30T11:27:00.667Z,100608.31
2023-05-30T11:29:34.915Z,100592.19
2023-05-30T11:32:02.792Z,100596.84
2023-05-30T11:34:29.463Z,100592.19
2023-05-30T11:36:56.746Z,100598.56
2023-05-30T11:39:23.631Z,100595.56
2023-05-30T11:41:50.299Z,100589.50
2023-05-30T11:44:17.452Z,100587.41
2023-05-30T11:46:44.120Z,100585.34
2023-05-30T11:49:11.088Z,100586.06
2023-05-30T11:51:40.613Z,100587.25
2023-05-30T11:54:09.135Z,100571.50
2023-05-30T11:56:35.757Z,100576.72
2023-05-30T11:59:02.566Z,100578.88
2023-05-30T12:01:29.092Z,100574.28
2023-05-30T12:03:55.764Z,100576.72
2023-05-30T12:06:23.204Z,100582.69
2023-05-30T12:08:49.983Z,100581.88
2023-05-30T12:11:17.153Z,100574.28
2023-05-30T12:13:43.974Z,100573.06
2023-05-30T12:16:13.967Z,100574.66
2023-05-30T12:18:41.272Z,100564.31
2023-05-30T12:21:12.506Z,100559.28
2023-05-30T12:23:44.131Z,100560.69
2023-05-30T12:26:18.053Z,100571.22
2023-05-30T12:28:46.738Z,100568.31
2023-05-30T12:31:23.927Z,100563.81
2023-05-30T12:33:51.655Z,100567.63
2023-05-30T12:36:29.460Z,100567.78
2023-05-30T12:38:57.946Z,100578.38
2023-05-30T12:41:31.537Z,100569.03
2023-05-30T12:43:59.391Z,100569.78
2023-05-30T12:46:29.317Z,100565.47
2023-05-30T12:48:55.959Z,100559.72
2023-05-30T12:51:22.698Z,100557.84
2023-05-30T12:53:54.194Z,100565.94
2023-05-30T12:56:21.081Z,100560.81
2023-05-30T12:58:47.514Z,100562.53
2023-05-30T13:01:14.655Z,100564.03
2023-05-30T13:03:41.279Z,100548.25
2023-05-30T13:06:08.329Z,100557.03
2023-05-30T13:08:34.961Z,100554.63
2023-05-30T13:11:04.337Z,100547.28
2023-05-30T13:13:32.641Z,100548.47
2023-05-30T13:15:59.123Z,100548.03
2023-05-30T13:18:25.739Z,100544.44
2023-05-30T13:20:52.433Z,100550.03
2023-05-30T13:23:19.064Z,100542.66
2023-05-30T13:25:45.746Z,100543.88
2023-05-30T13:28:12.600Z,100538.50
2023-05-30T13:30:39.633Z,100529.25
2023-05-30T13:33:06.439Z,100524.22
2023-05-30T13:35:33.399Z,100528.59
2023-05-30T13:38:00.292Z,100533.00
2023-05-30T13:40:26.846Z,100529.31
2023-05-30T13:42:53.426Z,100537.16
2023-05-30T13:45:21.674Z,100533.34
2023-05-30T13:47:48.666Z,100530.34
2023-05-30T13:50:15.510Z,100525.81
2023-05-30T13:52:42.010Z,100524.44
2023-05-30T13:55:09.000Z,100517.13
2023-05-30T13:57:35.924Z,100524.16
2023-05-30T14:00:02.544Z,100519.75
2023-05-30T14:02:29.058Z,100513.00
2023-05-30T14:04:55.599Z,100510.06
2023-05-30T14:07:22.390Z,100519.16
2023-05-30T14:09:48.840Z,100520.16
2023-05-30T14:12:15.541Z,100515.78
2023-05-30T14:14:42.449Z,100521.66
2023-05-30T14:17:09.475Z,100515.91
2023-05-30T14:19:36.083Z,100518.91
2023-05-30T14:22:05.759Z,100523.78
2023-05-30T14:24:32.204Z,100527.44
2023-05-30T14:26:59.449Z,100521.38
2023-05-30T14:29:26.389Z,100519.78
2023-05-30T14:31:52.970Z,100512.13
2023-05-30T14:34:19.447Z,100516.84
2023-05-30T14:36:46.652Z,100513.06
2023-05-30T14:39:13.121Z,100517.09
2023-05-30T14:41:39.677Z,100519.97
2023-05-30T14:44:06.377Z,100508.00
2023-05-30T14:46:32.904Z,100514.97
2023-05-30T14:48:59.333Z,100518.81
2023-05-30T14:51:25.805Z,100524.34
2023-05-30T14:53:52.744Z,100516.75
2023-05-30T14:56:19.282Z,100515.06
2023-05-30T14:58:46.043Z,100510.31
2023-05-30T15:01:31.548Z,100511.03
2023-05-30T15:04:01.220Z,100504.22
2023-05-30T15:06:27.864Z,100502.66
2023-05-30T15:08:54.955Z,100503.00
2023-05-30T15:11:23.124Z,100508.53
2023-05-30T15:13:49.872Z,100506.56
2023-05-30T15:16:16.548Z,100508.19
2023-05-30T15:18:43.103Z,100503.16
2023-05-30T15:21:09.617Z,100507.44
2023-05-30T15:23:36.145Z,100507.13
2023-05-30T15:26:02.838Z,100508.78
2023-05-30T15:28:29.431Z,100506.00
2023-05-30T15:30:58.933Z,100504.94
2023-05-30T15:33:26.447Z,100494.38
2023-05-30T15:35:53.743Z,100490.94
2023-05-30T15:38:20.322Z,100498.31
2023-05-30T15:40:47.077Z,100499.84
2023-05-30T15:43:13.931Z,100507.91
2023-05-30T15:45:40.574Z,100493.53
2023-05-30T15:48:07.213Z,100497.06
2023-05-30T15:50:33.900Z,100501.63
2023-05-30T15:53:00.529Z,100497.00
2023-05-30T15:55:27.555Z,100493.88
2023-05-30T15:57:54.349Z,100497.56
2023-05-30T16:00:21.177Z,100487.22
2023-05-30T16:02:47.738Z,100491.66
2023-05-30T16:05:14.278Z,100493.28
2023-05-30T16:07:40.879Z,100490.44
2023-05-30T16:10:08.084Z,100494.91
2023-05-30T16:12:34.648Z,100494.47
2023-05-30T16:15:01.722Z,100498.13
2023-05-30T16:17:29.840Z,100495.66
2023-05-30T16:19:56.603Z,100496.66
2023-05-30T16:22:23.252Z,100497.81
2023-05-30T16:24:50.218Z,100496.13
2023-05-30T16:27:17.090Z,100498.03
2023-05-30T16:29:43.524Z,100505.47
2023-05-30T16:32:09.993Z,100495.59
2023-05-30T16:34:36.459Z,100495.00
2023-05-30T16:37:03.152Z,100496.69
2023-05-30T16:39:29.946Z,100505.13
2023-05-30T16:41:56.685Z,100501.09
2023-05-30T16:44:23.320Z,100500.53
2023-05-30T16:46:49.865Z,100497.56
2023-05-30T16:49:16.383Z,100501.50
2023-05-30T16:51:42.936Z,100502.56
2023-05-30T16:54:10.942Z,100501.66
2023-05-30T16:56:37.748Z,100504.19
2023-05-30T16:59:04.497Z,100503.94
2023-05-30T17:01:31.145Z,100508.72
2023-05-30T17:03:57.817Z,100498.00
2023-05-30T17:06:24.713Z,100515.94
2023-05-30T17:08:51.184Z,100506.09
2023-05-30T17:11:17.762Z,100501.91
2023-05-30T17:13:44.298Z,100517.88
2023-05-30T17:16:11.522Z,100517.06
2023-05-30T17:18:38.311Z,100509.09
2023-05-30T17:21:05.099Z,100516.81
2023-05-30T17:23:32.997Z,100503.66
2023-05-30T17:26:03.215Z,100512.28
2023-05-30T17:28:30.798Z,100514.09
2023-05-30T17:30:58.830Z,100516.50
2023-05-30T17:33:25.778Z,100506.88
2023-05-30T17:35:52.648Z,100517.59
2023-05-30T17:38:19.313Z,100517.44
2023-05-30T17:40:45.987Z,100516.78
2023-05-30T17:43:12.979Z,100523.00
2023-05-30T17:45:39.480Z,100527.06
2023-05-30T17:48:11.571Z,100522.69
2023-05-30T17:50:39.064Z,100528.44
2023-05-30T17:53:05.670Z,100519.22
2023-05-30T17:55:32.448Z,100527.81
2023-05-30T17:57:59.197Z,100527.03
2023-05-30T18:00:27.760Z,100524.25
2023-05-30T18:02:54.872Z,100537.22
2023-05-30T18:05:23.414Z,100536.88
2023-05-30T18:07:51.327Z,100525.97
2023-05-30T18:10:18.124Z,100531.66
2023-05-30T18:12:44.669Z,100537.75
2023-05-30T18:15:11.886Z,100535.34
2023-05-30T18:17:38.870Z,100539.00
2023-05-30T18:20:06.495Z,100538.16
2023-05-30T18:22:33.785Z,100548.28
2023-05-30T18:25:00.858Z,100547.47
2023-05-30T18:27:28.126Z,100545.47
2023-05-30T18:29:55.518Z,100552.75
2023-05-30T18:32:22.678Z,100543.88
2023-05-30T18:34:50.509Z,100547.47
2023-05-30T18:37:17.211Z,100551.50
2023-05-30T18:39:43.997Z,100557.13
2023-05-30T18:42:10.864Z,100558.28
2023-05-30T18:44:37.638Z,100559.06
2023-05-30T18:47:04.765Z,100557.81
2023-05-30T18:49:31.573Z,100554.94
2023-05-30T18:51:58.327Z,100557.34
2023-05-30T18:54:24.838Z,100556.44
2023-05-30T18:56:52.618Z,100566.03
2023-05-30T18:59:19.248Z,100559.13
2023-05-30T19:01:46.031Z,100562.66
2023-05-30T19:04:12.916Z,100562.56
2023-05-30T19:06:39.547Z,100567.75
2023-05-30T19:09:06.528Z,100570.03
2023-05-30T19:11:33.297Z,100577.56
2023-05-30T19:14:01.389Z,100579.44
2023-05-30T19:16:27.996Z,100585.34
2023-05-30T19:18:55.024Z,100584.81
2023-05-30T19:21:21.718Z,100589.94
2023-05-30T19:23:48.231Z,100600.22
2023-05-30T19:26:17.004Z,100588.41
2023-05-30T19:28:46.303Z,100592.75
2023-05-30T19:31:15.414Z,100591.81
2023-05-30T19:33:43.099Z,100590.44
2023-05-30T19:36:10.308Z,100597.53
2023-05-30T19:38:37.182Z,100599.75
2023-05-30T19:41:03.996Z,100591.53
2023-05-30T19:43:30.641Z,100601.16
2023-05-30T19:45:57.091Z,100592.56
2023-05-30T19:48:24.333Z,100598.84
2023-05-30T19:50:51.061Z,100601.13
2023-05-30T19:53:17.577Z,100601.81
2023-05-30T19:55:44.129Z,100595.66
2023-05-30T19:58:10.606Z,100598.78
2023-05-30T20:00:41.762Z,100611.81
2023-05-30T20:03:09.792Z,100608.81
2023-05-30T20:05:39.374Z,100611.88
2023-05-30T20:08:06.393Z,100613.31
2023-05-30T20:10:33.855Z,100621.66
2023-05-30T20:13:00.427Z,100615.97
2023-05-30T20:15:27.364Z,100628.16
2023-05-30T20:18:00.074Z,100626.59
2023-05-30T20:20:27.052Z,100621.81
2023-05-30T20:22:53.723Z,100619.25
2023-05-30T20:25:22.095Z,100617.63
2023-05-30T20:27:49.454Z,100614.69
2023-05-30T20:30:16.969Z,100613.25
2023-05-30T20:32:44.266Z,100617.88
2023-05-30T20:35:11.350Z,100618.47
2023-05-30T20:37:38.406Z,100626.88
2023-05-30T20:40:05.558Z,100624.38
2023-05-30T20:42:32.675Z,100623.34
2023-05-30T20:44:59.420Z,100629.78
2023-05-30T20:47:27.505Z,100627.34
2023-05-30T20:49:54.069Z,100626.31
2023-05-30T20:52:20.865Z,100629.66
2023-05-30T20:54:47.381Z,100631.13
2023-05-30T20:57:18.512Z,100643.91
2023-05-30T20:59:45.475Z,100643.16
2023-05-30T21:02:13.020Z,100641.25
2023-05-30T21:04:39.847Z,100642.34
2023-05-30T21:07:06.408Z,100644.50
2023-05-30T21:09:33.173Z,100644.28
2023-05-30T21:11:59.881Z,100646.78
2023-05-30T21:14:26.564Z,100640.91
2023-05-30T21:16:53.407Z,100643.72
2023-05-30T21:19:19.976Z,100639.13
2023-05-30T21:21:46.650Z,100640.59
2023-05-30T21:24:13.282Z,100634.69
2023-05-30T21:26:39.753Z,100642.66
2023-05-30T21:29:06.314Z,100646.19
2023-05-30T21:31:33.051Z,100646.13
2023-05-30T21:34:00.771Z,100641.03
2023-05-30T21:36:27.597Z,100645.31
2023-05-30T21:38:54.048Z,100642.88
2023-05-30T21:41:22.513Z,100647.47
2023-05-30T21:43:49.035Z,100656.88
2023-05-30T21:46:16.857Z,100651.66
2023-05-30T21:48:43.912Z,100658.97
2023-05-30T21:51:11.065Z,100670.38
2023-05-30T21:53:37.729Z,100667.47
2023-05-30T21:56:04.302Z,100658.88
2023-05-30T21:58:30.854Z,100664.03
2023-05-30T22:00:57.417Z,100661.94
2023-05-30T22:03:25.796Z,100670.09
2023-05-30T22:05:52.630Z,100668.00
2023-05-30T22:08:19.179Z,100674.59
2023-05-30T22:10:45.818Z,100673.06
2023-05-30T22:13:12.399Z,100679.75
2023-05-30T22:15:38.965Z,100676.75
2023-05-30T22:18:06.022Z,100684.88
2023-05-30T22:20:32.602Z,100688.66
2023-05-30T22:23:01.285Z,100687.06
2023-05-30T22:25:29.160Z,100684.53
2023-05-30T22:27:56.472Z,100685.06
2023-05-30T22:30:23.028Z,100696.19
2023-05-30T22:32:49.726Z,100693.00
2023-05-30T22:35:16.473Z,100691.19
2023-05-30T22:37:43.206Z,100698.59
2023-05-30T22:40:09.975Z,100688.94
2023-05-30T22:42:37.292Z,100685.75
2023-05-30T22:45:04.156Z,100689.06
2023-05-30T22:47:30.643Z,100687.13
2023-05-30T22:49:57.177Z,100688.56
2023-05-30T22:52:23.640Z,100685.16
2023-05-30T22:54:50.099Z,100682.25
2023-05-30T22:57:17.020Z,100683.44
2023-05-30T22:59:43.493Z,100682.16
2023-05-30T23:02:10.293Z,100682.06
2023-05-30T23:04:37.466Z,100690.19
2023-05-30T23:07:04.222Z,100677.88
2023-05-30T23:09:31.204Z,100683.34
2023-05-30T23:11:57.690Z,100685.09
2023-05-30T23:14:24.592Z,100677.66
2023-05-30T23:16:51.219Z,100683.47
2023-05-30T23:19:17.737Z,100679.16
2023-05-30T23:21:47.251Z,100680.34
2023-05-30T23:24:14.818Z,100681.47
2023-05-30T23:26:41.507Z,100685.19
2023-05-30T23:32:55.419Z,100690.97
2023-05-30T23:35:23.766Z,100677.75
2023-05-30T23:37:50.331Z,100680.56
2023-05-30T23:40:17.103Z,100681.03
2023-05-30T23:42:43.983Z,100682.25
2023-05-30T23:45:10.691Z,100685.16
2023-05-30T23:47:37.278Z,100688.06
2023-05-30T23:50:04.176Z,100693.63
2023-05-30T23:52:30.795Z,100686.72
2023-05-30T23:54:57.537Z,100690.69
2023-05-30T23:57:24.178Z,100697.97
2023-05-30T23:59:51.345Z,100691.09
